Latest Weather Observations for Busselton Airport

IDW60801

Issued at 6:05 pm WST Friday 29 August 2014 (issued every 30 minutes, with the page automatically refreshed every 10 minutes)

About weather observations | Map of weather stations | Latest weather observations for WA | Other Formats
Station Details ID: 009603 Name: BUSSELTON AERO Lat: -33.69 Lon: 115.40 Height: 16.3 m
Data from the previous 72 hours. | See also: Recent months at Busselton Airport
Date/Time
WST
Temp
°C
App
Temp
°C
Dew
Point
Rel
Hum
%
Delta-T
°C
Wind Press
QNH
hPa
Press
MSL
hPa
Rain
since 9 am
mm
Dir
 
Spd
km/h
Gust
km/h
Spd
kts
Gust
kts
29/06:00pm 15.5 15.0 13.9 90 0.9 N 9 13 5 7 1011.1 1011.1 8.4
29/05:30pm 15.8 15.7 14.0 89 1.0 NNW 7 11 4 6 1011.0 1011.0 8.4
29/05:00pm 16.0 15.2 13.9 87 1.2 NNW 11 15 6 8 1010.9 1010.9 8.4
29/04:30pm 16.2 15.0 13.9 86 1.3 NNW 13 17 7 9 1010.6 1010.6 8.4
29/04:00pm 16.3 15.6 14.2 87 1.2 NNW 11 17 6 9 1010.6 1010.6 8.4
29/03:30pm 16.6 15.1 14.3 86 1.3 N 15 19 8 10 1010.9 1010.9 8.4
29/03:00pm 16.7 16.3 14.2 85 1.4 NNW 9 13 5 7 1010.5 1010.5 8.4
29/02:30pm 16.6 16.6 13.7 83 1.6 WSW 6 7 3 4 1010.4 1010.4 8.4
29/02:00pm 16.0 15.6 14.2 89 1.0 WSW 9 13 5 7 1010.8 1010.8 8.4
29/01:30pm 16.4 15.5 14.9 91 0.9 WSW 13 15 7 8 1010.8 1010.8 8.2
29/01:00pm 16.4 15.7 15.4 94 0.6 SW 13 19 7 10 1010.6 1010.6 8.0
29/12:30pm 15.9 14.1 14.5 91 0.8 WSW 17 20 9 11 1010.8 1010.8 7.0
29/12:00pm 16.5 15.7 15.2 92 0.8 WNW 13 26 7 14 1011.0 1011.0 4.2
29/11:30am 16.8 15.8 15.7 93 0.6 W 15 20 8 11 1010.9 1010.9 2.8
29/11:00am 16.1 14.6 15.3 95 0.5 NW 17 22 9 12 1011.1 1011.1 2.8
29/10:30am 16.1 14.6 15.2 94 0.5 NW 17 22 9 12 1011.0 1011.0 1.6
29/10:00am 16.5 16.0 16.0 97 0.3 WNW 13 19 7 10 1011.2 1011.2 1.4
29/09:30am 15.6 16.1 15.0 96 0.3 N 6 9 3 5 1010.9 1010.9 1.2
29/09:00am 14.8 14.0 13.9 94 0.5 NW 11 15 6 8 1011.3 1011.3 45.2
29/08:30am 14.7 13.8 13.8 94 0.5 W 11 15 6 8 1011.2 1011.2 44.4
29/08:00am 14.5 13.0 13.2 92 0.7 W 13 22 7 12 1011.2 1011.2 42.0
29/07:30am 14.6 12.0 13.1 91 0.8 W 19 30 10 16 1010.6 1010.6 39.2
29/07:00am 15.7 15.0 14.4 92 0.7 WNW 11 17 6 9 1010.1 1010.1 36.2
29/06:30am 15.7 15.5 14.6 93 0.6 WNW 9 15 5 8 1009.8 1009.8 36.2
29/06:00am 16.1 15.3 15.1 94 0.6 WNW 13 17 7 9 1009.6 1009.6 36.2
29/05:30am 16.2 12.9 15.1 93 0.6 NW 26 37 14 20 1009.5 1009.5 36.2
29/05:00am 16.5 13.8 14.7 89 1.0 NW 22 30 12 16 1009.4 1009.4 33.6
29/04:30am 16.4 13.8 14.9 91 0.9 NW 22 30 12 16 1009.2 1009.2 33.6
29/04:00am 16.4 14.2 14.9 91 0.9 NW 20 32 11 17 1009.2 1009.2 33.2
29/03:30am 16.7 14.3 15.4 92 0.8 NW 22 32 12 17 1008.9 1008.9 32.8
29/03:00am 16.9 12.8 16.0 94 0.5 NW 32 43 17 23 1009.4 1009.4 32.4
29/02:30am 16.7 12.8 15.6 93 0.6 NNW 30 41 16 22 1009.5 1009.5 31.8
29/02:00am 16.7 13.9 15.4 92 0.8 NNW 24 32 13 17 1010.0 1010.0 31.4
29/01:30am 16.6 13.7 15.1 91 0.9 NNW 24 33 13 18 1010.0 1010.0 31.0
29/01:00am 16.6 13.6 14.8 89 1.0 NNW 24 33 13 18 1010.3 1010.3 31.0
29/12:30am 16.3 12.1 14.7 90 0.9 NW 30 43 16 23 1010.7 1010.7 31.0
29/12:00am 16.4 13.9 15.1 92 0.8 NNW 22 30 12 16 1010.8 1010.8 30.4
 
Date/Time
WST
Temp
°C
App
Temp
°C
Dew
Point
Rel
Hum
%
Delta-T
°C
Wind Press
QNH
hPa
Press
MSL
hPa
Rain
since 9 am
mm
Dir
 
Spd
km/h
Gust
km/h
Spd
kts
Gust
kts
28/11:30pm 16.7 14.2 15.2 91 0.9 NW 22 32 12 17 1011.4 1011.4 29.4
28/11:00pm 16.1 13.7 14.3 89 1.0 NW 20 32 11 17 1011.6 1011.6 29.2
28/10:30pm 15.8 13.6 13.3 85 1.4 NW 17 22 9 12 1012.0 1012.0 29.0
28/10:00pm 15.4 12.8 13.9 91 0.8 NW 20 30 11 16 1011.9 1011.9 28.8
28/09:30pm 15.0 11.5 13.4 90 0.9 NNW 24 30 13 16 1012.8 1012.8 28.4
28/09:00pm 16.5 10.9 13.2 81 1.8 WNW 35 54 19 29 1012.9 1012.9 23.4
28/08:30pm 18.2 13.5 15.8 86 1.4 NNW 35 46 19 25 1012.1 1012.1 21.2
28/08:09pm 18.0 14.4 16.2 89 1.1 N 30 48 16 26 1011.5 1011.5 21.2
28/08:00pm 17.9 14.5 15.9 88 1.2 NNW 28 35 15 19 1011.4 1011.4 21.2
28/07:30pm 18.4 14.6 15.7 84 1.6 N 30 39 16 21 1011.9 1011.9 20.6
28/07:00pm 18.4 15.0 15.7 84 1.6 N 28 39 15 21 1011.7 1011.7 20.6
28/06:30pm 18.3 14.8 15.6 84 1.6 NNW 28 39 15 21 1011.6 1011.6 20.6
28/06:00pm 18.2 14.3 15.6 85 1.5 NNW 30 41 16 22 1011.5 1011.5 20.6
28/05:30pm 18.4 14.7 15.9 85 1.5 N 30 43 16 23 1011.5 1011.5 20.6
28/05:00pm 18.4 15.0 15.7 84 1.6 N 28 37 15 20 1011.5 1011.5 20.6
28/04:30pm 18.4 15.0 15.7 84 1.6 N 28 41 15 22 1011.6 1011.6 20.6
28/04:00pm 18.3 15.4 16.0 86 1.4 N 26 35 14 19 1011.4 1011.4 20.6
28/03:30pm 17.4 15.1 15.6 89 1.1 NNW 22 32 12 17 1011.6 1011.6 20.6
28/03:00pm 16.6 14.2 15.5 93 0.6 NNW 22 30 12 16 1011.6 1011.6 20.6
28/02:30pm 16.2 14.7 15.3 94 0.5 N 17 20 9 11 1012.0 1012.0 20.6
28/02:00pm 16.0 13.9 15.1 94 0.5 NW 20 26 11 14 1012.2 1012.2 19.8
28/01:49pm 15.6 10.8 14.5 93 0.6 NW 33 52 18 28 1012.1 1012.1 19.8
28/01:37pm 16.6 10.9 14.3 86 1.3 WNW 37 48 20 26 1013.1 1013.1 2.2
28/01:30pm 18.3 15.2 15.7 85 1.5 NNW 26 37 14 20 1012.1 1012.1 0.0
28/01:00pm 18.3 15.3 15.8 85 1.5 N 26 37 14 20 1012.4 1012.4 0.0
28/12:30pm 18.5 15.0 15.6 83 1.7 NNW 28 39 15 21 1013.0 1013.0 0.0
28/12:00pm 18.7 14.9 15.8 83 1.7 NNW 30 43 16 23 1013.4 1013.4 0.0
28/11:30am 18.7 15.0 16.0 84 1.6 NNW 30 43 16 23 1013.3 1013.3 0.0
28/11:00am 18.8 15.5 16.1 84 1.6 NNW 28 41 15 22 1013.4 1013.4 0.0
28/10:30am 18.9 15.5 15.8 82 1.8 N 28 39 15 21 1013.5 1013.5 0.0
28/10:00am 18.8 15.4 15.7 82 1.8 N 28 39 15 21 1013.7 1013.7 0.0
28/09:30am 18.9 15.4 15.6 81 1.9 NNW 28 43 15 23 1013.8 1013.8 0.0
28/09:00am 18.6 15.0 15.3 81 1.9 N 28 46 15 25 1013.8 1013.8 0.0
28/08:58am 18.6 15.0 15.3 81 1.9 N 28 46 15 25 1013.8 1013.8 0.0
28/08:30am 18.1 15.1 14.8 81 1.9 N 24 32 13 17 1013.9 1013.9 0.0
28/08:00am 17.8 14.6 14.3 80 2.0 N 24 35 13 19 1013.8 1013.8 0.0
28/07:30am 17.9 14.2 14.0 78 2.2 N 26 33 14 18 1013.7 1013.7 0.0
28/07:00am 17.7 14.2 13.5 76 2.4 N 24 32 13 17 1013.5 1013.5 0.0
28/06:30am 17.6 14.6 13.7 78 2.2 N 22 33 12 18 1013.4 1013.4 0.0
28/06:00am 16.7 13.5 14.2 85 1.4 N 24 30 13 16 1013.2 1013.2 0.0
28/05:30am 16.6 12.5 13.7 83 1.6 N 28 37 15 20 1013.0 1013.0 0.0
28/05:00am 16.3 12.7 12.9 80 1.9 N 24 32 13 17 1013.2 1013.2 0.0
28/04:30am 16.0 12.3 12.6 80 1.9 NNE 24 35 13 19 1013.3 1013.3 0.0
28/04:00am 15.4 12.6 12.7 84 1.5 NNE 19 24 10 13 1013.5 1013.5 0.0
28/03:30am 13.7 12.1 11.4 86 1.2 ENE 11 15 6 8 1013.8 1013.8 0.0
28/03:00am 14.4 11.6 12.6 89 1.0 NNE 19 26 10 14 1014.0 1014.0 0.0
28/02:30am 12.1 9.9 10.9 92 0.6 ENE 13 19 7 10 1014.7 1014.7 0.0
28/02:00am 11.4 9.7 9.7 89 0.9 E 9 13 5 7 1015.1 1015.1 0.0
28/01:30am 12.5 10.7 10.8 89 0.9 NE 11 15 6 8 1015.6 1015.6 0.0
28/01:00am 12.5 10.1 10.2 86 1.2 ENE 13 17 7 9 1015.7 1015.7 0.0
28/12:30am 14.5 12.6 11.7 83 1.5 NNE 13 15 7 8 1016.1 1016.1 0.0
28/12:00am 14.4 12.3 11.2 81 1.7 N 13 17 7 9 1016.5 1016.5 0.0
 
Date/Time
WST
Temp
°C
App
Temp
°C
Dew
Point
Rel
Hum
%
Delta-T
°C
Wind Press
QNH
hPa
Press
MSL
hPa
Rain
since 9 am
mm
Dir
 
Spd
km/h
Gust
km/h
Spd
kts
Gust
kts
27/11:30pm 15.7 13.4 11.7 77 2.2 N 15 17 8 9 1016.9 1016.9 0.0
27/11:00pm 15.6 13.7 11.8 78 2.1 N 13 17 7 9 1017.1 1017.1 0.0
27/10:30pm 15.3 13.2 11.3 77 2.1 N 13 17 7 9 1017.5 1017.5 0.0
27/10:00pm 15.0 12.5 11.2 78 2.0 NNW 15 17 8 9 1017.8 1017.8 0.0
27/09:30pm 16.1 13.3 11.5 74 2.5 NW 17 20 9 11 1018.0 1018.0 0.0
27/09:00pm 15.7 13.3 11.5 76 2.3 NNW 15 19 8 10 1018.2 1018.2 0.0
27/08:30pm 16.2 13.2 10.8 70 2.9 NW 17 22 9 12 1018.2 1018.2 0.0
27/08:00pm 15.6 12.9 10.4 71 2.7 NNW 15 19 8 10 1018.0 1018.0 0.0
27/07:30pm 15.8 12.6 10.0 68 3.0 NW 17 24 9 13 1017.9 1017.9 0.0
27/07:00pm 16.0 12.5 10.1 68 3.1 NW 19 24 10 13 1018.0 1018.0 0.0
27/06:30pm 16.0 12.4 9.9 67 3.2 NW 19 32 10 17 1018.0 1018.0 0.0
27/06:00pm 16.1 12.5 9.8 66 3.3 NW 19 32 10 17 1017.6 1017.6 0.0
27/05:30pm 15.9 12.2 9.6 66 3.3 NW 19 28 10 15 1017.5 1017.5 0.0
27/05:00pm 16.1 11.8 9.3 64 3.5 NW 22 33 12 18 1017.6 1017.6 0.0
27/04:30pm 16.9 13.3 10.7 67 3.3 NNW 20 28 11 15 1017.5 1017.5 0.0
27/04:00pm 17.1 12.4 10.7 66 3.4 N 26 32 14 17 1017.6 1017.6 0.0
27/03:30pm 17.5 13.1 11.6 68 3.2 N 26 33 14 18 1017.8 1017.8 0.0
27/03:00pm 16.8 12.8 10.4 66 3.4 N 22 28 12 15 1018.1 1018.1 0.0
27/02:30pm 17.3 13.5 11.2 67 3.3 N 22 30 12 16 1018.2 1018.2 0.0
27/02:00pm 16.4 12.1 10.9 70 2.9 N 24 33 13 18 1017.9 1017.9 0.0
27/01:30pm 16.3 12.9 11.3 72 2.7 N 20 32 11 17 1017.9 1017.9 0.0
27/01:00pm 16.2 11.7 11.4 73 2.6 N 26 32 14 17 1018.2 1018.2 0.0
27/12:30pm 16.6 13.4 11.3 71 2.9 N 19 24 10 13 1018.6 1018.6 0.0
27/12:00pm 17.2 14.3 11.1 67 3.3 N 17 24 9 13 1019.2 1019.2 0.0
27/11:30am 16.7 13.9 11.2 70 3.0 N 17 24 9 13 1020.1 1020.2 0.0
27/11:00am 15.3 13.4 10.5 73 2.5 NE 11 17 6 9 1020.6 1020.7 0.0
27/10:30am 14.8 13.3 10.6 76 2.2 NE 9 13 5 7 1021.0 1021.1 0.0
27/10:00am 14.1 12.6 10.4 78 1.9 NE 9 11 5 6 1021.3 1021.4 0.0
27/09:30am 13.4 12.4 10.2 81 1.7 N 6 7 3 4 1021.6 1021.7 0.0
27/09:00am 12.7 11.6 10.1 84 1.3 N 6 9 3 5 1021.7 1021.8 0.2
27/08:30am 12.0 10.8 10.3 89 0.9 ENE 7 9 4 5 1021.1 1021.2 0.2
27/08:00am 9.9 8.9 8.7 92 0.6 SSE 4 6 2 3 1020.9 1021.0 0.2
27/07:30am 7.8 6.2 6.2 90 0.7 SSW 4 7 2 4 1020.9 1021.0 0.2
27/07:00am 8.5 7.7 6.6 88 0.9 CALM 0 0 0 0 1020.9 1021.0 0.2
27/06:30am 8.5 7.7 6.3 86 1.0 CALM 0 0 0 0 1020.8 1020.9 0.2
27/06:00am 8.8 6.9 6.6 86 1.0 SSW 6 7 3 4 1020.7 1020.8 0.2
27/05:30am 9.1 7.6 6.6 84 1.2 S 4 6 2 3 1020.9 1021.0 0.2
27/05:00am 9.4 8.3 6.7 83 1.3 SE 2 6 1 3 1020.9 1021.0 0.2
27/04:30am 9.1 7.0 6.7 85 1.1 E 7 9 4 5 1020.9 1021.0 0.2
27/04:00am 8.6 6.0 6.1 84 1.1 E 9 11 5 6 1021.0 1021.1 0.2
27/03:30am 7.8 5.4 5.1 83 1.2 E 7 11 4 6 1021.1 1021.2 0.2
27/03:00am 7.7 4.8 4.9 82 1.2 E 9 11 5 6 1021.6 1021.7 0.2
27/02:30am 8.0 5.5 4.8 80 1.4 ESE 7 7 4 4 1021.7 1021.8 0.2
27/02:00am 8.3 5.4 4.9 79 1.5 ESE 9 9 5 5 1021.8 1021.9 0.2
27/01:30am 9.2 6.5 5.4 77 1.7 ESE 9 13 5 7 1022.3 1022.4 0.2
27/01:00am 9.5 6.3 5.3 75 1.9 E 11 13 6 7 1022.7 1022.8 0.2
27/12:30am 10.0 6.8 5.2 72 2.2 ESE 11 13 6 7 1022.8 1022.9 0.2
27/12:00am 9.8 6.9 4.8 71 2.2 SE 9 11 5 6 1023.1 1023.2 0.2
 
Date/Time
WST
Temp
°C
App
Temp
°C
Dew
Point
Rel
Hum
%
Delta-T
°C
Wind Press
QNH
hPa
Press
MSL
hPa
Rain
since 9 am
mm
Dir
 
Spd
km/h
Gust
km/h
Spd
kts
Gust
kts
26/11:30pm 9.8 7.0 5.0 72 2.2 SE 9 13 5 7 1023.2 1023.3 0.2
26/11:00pm 10.0 6.3 4.6 69 2.4 SE 13 17 7 9 1023.3 1023.4 0.2
26/10:30pm 10.3 6.6 4.7 68 2.5 SE 13 17 7 9 1023.6 1023.6 0.2
26/10:00pm 10.4 5.9 4.4 66 2.7 SE 17 20 9 11 1023.7 1023.7 0.2
26/09:30pm 10.9 5.9 4.8 66 2.8 SSE 20 24 11 13 1023.8 1023.8 0.2
26/09:00pm 11.1 7.1 4.8 65 2.8 SSE 15 19 8 10 1024.0 1024.0 0.2
26/08:30pm 11.2 7.7 5.3 67 2.7 S 13 19 7 10 1024.0 1024.0 0.2
26/08:00pm 10.8 7.9 4.9 67 2.7 SSE 9 11 5 6 1023.8 1023.8 0.2
26/07:30pm 11.3 8.0 4.8 64 3.0 S 11 13 6 7 1023.7 1023.7 0.2
26/07:00pm 11.9 8.8 5.6 65 2.9 S 11 15 6 8 1023.7 1023.7 0.2
26/06:30pm 12.7 9.4 6.3 65 3.0 SSW 13 17 7 9 1023.3 1023.4 0.2

Other Formats:

Comma delimited format used in spreadsheet applications
http://www.bom.gov.au/fwo/IDW60801/IDW60801.95611.axf

JavaScript Object Notation format (JSON) in row-major order
http://www.bom.gov.au/fwo/IDW60801/IDW60801.95611.json